This is the latest recevied weather packets stored in our database for station/object TG5ALY-15. If no packets are shown the sender has not sent any weather packets the latest 10 day(s).
| Time | Temp. | Humidity | Pressure | Rain* | Wind** | Luminosity | Snow |
|---|---|---|---|---|---|---|---|
| 1778004101 | 22.78° C | 47% | 1029.5 hPa | 0 mm | - | 377 W/m² | - |
| 1778002898 | 22.22° C | 53% | 1029.5 hPa | 0 mm | - | 799 W/m² | - |
| 1778001698 | 21.67° C | 58% | 1029.9 hPa | 0 mm | - | 620 W/m² | - |
| 1778000494 | 21.67° C | 58% | 1030.4 hPa | 0 mm | - | 1003 W/m² | - |
| 1777999290 | 22.22° C | 56% | 1030.4 hPa | 0 mm | - | 914 W/m² | - |
| 1777998086 | 21.11° C | 57% | 1030.4 hPa | 0 mm | - | 851 W/m² | - |
| 1777996881 | 20.56° C | 57% | 1030.4 hPa | 0 mm | - | 790 W/m² | - |
| 1777995677 | 20.56° C | 60% | 1030.8 hPa | 0 mm | - | 740 W/m² | - |
| 1777994476 | 18.89° C | 64% | 1031.3 hPa | 0 mm | - | 651 W/m² | - |
| 1777993273 | 17.78° C | 72% | 1031.7 hPa | 0 mm | - | 584 W/m² | - |
| 1777992074 | 17.22° C | 72% | 1031.3 hPa | 0 mm | - | 524 W/m² | - |
| 1777990868 | 15.56° C | 76% | 1031.3 hPa | 0 mm | - | 431 W/m² | - |
| 1777989668 | 15° C | 81% | 1030.8 hPa | 0 mm | - | 344 W/m² | - |
| 1777988465 | 13.33° C | 84% | 1030.8 hPa | 0 mm | - | 256 W/m² | - |
| 1777987263 | 12.22° C | 87% | 1030.4 hPa | 0 mm | - | 177 W/m² | - |
| 1777986059 | 11.11° C | 89% | 1030.4 hPa | 0 mm | - | 82 W/m² | - |
| 1777984857 | 10° C | 93% | 1030.4 hPa | 0 mm | - | 51 W/m² | - |
| 1777983656 | 9.44° C | 94% | 1030.4 hPa | 0 mm | - | 27 W/m² | - |
| 1777982453 | 9.44° C | 94% | 1029.9 hPa | 0 mm | - | 11 W/m² | - |
| 1777981250 | 9.44° C | 95% | 1029.9 hPa | 0 mm | - | 2 W/m² | - |
| 1777980050 | 8.89° C | 94% | 1029.9 hPa | 0 mm | - | 0 W/m² | - |
| 1777978845 | 9.44° C | 93% | 1029.9 hPa | 0 mm | - | 0 W/m² | - |
| 1777977644 | 10° C | 93% | 1029.5 hPa | 0 mm | - | 0 W/m² | - |
| 1777976444 | 10° C | 92% | 1029.5 hPa | 0 mm | - | 0 W/m² | - |
| 1777975244 | 10° C | 92% | 1029.5 hPa | 0 mm | - | 0 W/m² | - |
* Rain latest hour (hover to see other rain measurements)
** Current wind speed in m/s (hover to see current wind gust speed)